createdAt,value
2022-11-27T00:02:11.539Z,187.15
2022-11-27T00:04:38.844Z,169.43
2022-11-27T00:07:08.817Z,168.90
2022-11-27T00:09:39.844Z,169.07
2022-11-27T00:12:09.639Z,128.30
2022-11-27T00:14:36.153Z,169.73
2022-11-27T00:17:02.645Z,167.05
2022-11-27T00:19:29.319Z,154.02
2022-11-27T00:21:55.737Z,160.70
2022-11-27T00:24:23.389Z,159.55
2022-11-27T00:26:49.969Z,170.45
2022-11-27T00:29:16.360Z,159.32
2022-11-27T00:31:42.848Z,167.68
2022-11-27T00:34:10.580Z,166.95
2022-11-27T00:36:37.141Z,152.48
2022-11-27T00:39:03.720Z,161.13
2022-11-27T00:41:30.465Z,167.63
2022-11-27T00:43:57.234Z,153.68
2022-11-27T00:46:28.363Z,152.48
2022-11-27T00:51:23.132Z,146.10
2022-11-27T00:53:49.570Z,157.65
2022-11-27T00:56:17.411Z,141.70
2022-11-27T00:58:43.992Z,159.55
2022-11-27T01:01:15.150Z,164.52
2022-11-27T01:03:41.627Z,144.40
2022-11-27T01:06:08.198Z,160.98
2022-11-27T01:08:34.743Z,155.45
2022-11-27T01:11:01.241Z,148.45
2022-11-27T01:13:28.953Z,153.55
2022-11-27T01:16:21.497Z,153.38
2022-11-27T01:18:49.411Z,154.95
2022-11-27T01:21:17.049Z,147.88
2022-11-27T01:23:43.458Z,142.77
2022-11-27T01:26:10.388Z,162.38
2022-11-27T01:28:38.629Z,149.07
2022-11-27T01:31:16.634Z,157.75
2022-11-27T01:33:43.266Z,164.70
2022-11-27T01:36:11.351Z,159.13
2022-11-27T01:38:37.819Z,156.18
2022-11-27T01:41:08.883Z,151.38
2022-11-27T01:43:37.682Z,163.03
2022-11-27T01:46:04.565Z,169.38
2022-11-27T01:48:31.496Z,158.15
2022-11-27T01:50:57.991Z,164.07
2022-11-27T01:53:24.739Z,158.15
2022-11-27T01:55:54.115Z,168.23
2022-11-27T01:58:23.275Z,161.07
2022-11-27T02:00:49.775Z,160.80
2022-11-27T02:03:16.377Z,171.57
2022-11-27T02:05:42.879Z,151.52
2022-11-27T02:08:10.542Z,154.68
2022-11-27T02:10:36.938Z,165.70
2022-11-27T02:13:06.292Z,156.45
2022-11-27T02:15:35.694Z,142.35
2022-11-27T02:18:20.845Z,134.13
2022-11-27T02:20:53.278Z,134.43
2022-11-27T02:23:23.167Z,136.57
2022-11-27T02:25:58.608Z,156.23
2022-11-27T02:28:38.852Z,144.00
2022-11-27T02:31:28.425Z,132.45
2022-11-27T02:33:57.215Z,131.07
2022-11-27T02:36:27.882Z,128.88
2022-11-27T02:38:59.625Z,151.38
2022-11-27T02:41:27.893Z,134.40
2022-11-27T02:43:55.107Z,131.65
2022-11-27T02:46:22.177Z,135.23
2022-11-27T02:48:49.999Z,138.90
2022-11-27T02:51:22.118Z,144.60
2022-11-27T02:53:56.499Z,122.97
2022-11-27T02:56:24.772Z,132.95
2022-11-27T02:58:52.415Z,136.88
2022-11-27T03:01:21.222Z,143.55
2022-11-27T03:03:49.182Z,149.57
2022-11-27T03:06:20.016Z,146.32
2022-11-27T03:08:50.658Z,144.80
2022-11-27T03:11:17.553Z,136.43
2022-11-27T03:13:45.569Z,136.48
2022-11-27T03:16:17.551Z,143.68
2022-11-27T03:18:48.360Z,164.93
2022-11-27T03:21:32.842Z,164.52
2022-11-27T03:23:59.690Z,156.30
2022-11-27T03:26:26.591Z,166.18
2022-11-27T03:28:53.810Z,168.57
2022-11-27T03:31:20.542Z,151.40
2022-11-27T03:33:47.615Z,147.85
2022-11-27T03:36:15.284Z,162.55
2022-11-27T03:38:42.476Z,168.90
2022-11-27T03:41:08.853Z,163.80
2022-11-27T03:43:38.621Z,155.85
2022-11-27T03:46:13.870Z,146.93
2022-11-27T03:49:03.168Z,150.70
2022-11-27T03:51:32.399Z,146.60
2022-11-27T03:54:10.447Z,161.50
2022-11-27T03:56:42.163Z,173.45
2022-11-27T03:59:28.578Z,166.10
2022-11-27T04:01:55.054Z,161.38
2022-11-27T04:04:21.705Z,169.88
2022-11-27T04:06:48.157Z,172.50
2022-11-27T04:09:14.595Z,180.73
2022-11-27T04:11:41.132Z,183.57
2022-11-27T04:14:07.684Z,191.63
2022-11-27T04:16:34.193Z,159.43
2022-11-27T04:19:00.672Z,170.38
2022-11-27T04:21:27.081Z,180.18
2022-11-27T04:23:53.530Z,152.23
2022-11-27T04:26:20.266Z,171.68
2022-11-27T04:28:46.696Z,167.35
2022-11-27T04:31:13.134Z,155.52
2022-11-27T04:33:39.626Z,149.32
2022-11-27T04:36:06.324Z,165.63
2022-11-27T04:38:32.777Z,162.10
2022-11-27T04:40:59.220Z,165.65
2022-11-27T04:43:25.800Z,159.30
2022-11-27T04:45:52.193Z,162.23
2022-11-27T04:48:18.606Z,164.10
2022-11-27T04:50:45.166Z,164.77
2022-11-27T04:53:11.615Z,159.18
2022-11-27T04:55:38.046Z,162.38
2022-11-27T04:58:04.530Z,160.30
2022-11-27T05:00:31.010Z,171.18
2022-11-27T05:02:57.573Z,176.88
2022-11-27T05:05:24.013Z,174.35
2022-11-27T05:07:50.892Z,182.82
2022-11-27T05:10:17.395Z,192.40
2022-11-27T05:12:43.773Z,200.27
2022-11-27T05:15:10.294Z,198.50
2022-11-27T05:17:36.762Z,211.38
2022-11-27T05:20:03.929Z,203.48
2022-11-27T05:22:30.450Z,203.68
2022-11-27T05:24:56.895Z,230.68
2022-11-27T05:27:23.325Z,224.13
2022-11-27T05:29:51.043Z,216.45
2022-11-27T05:32:17.504Z,224.50
2022-11-27T05:34:44.074Z,235.90
2022-11-27T05:37:17.877Z,234.20
2022-11-27T05:39:45.829Z,222.35
2022-11-27T05:42:12.369Z,227.13
2022-11-27T05:44:39.332Z,240.15
2022-11-27T05:47:06.135Z,237.13
2022-11-27T05:49:32.666Z,252.63
2022-11-27T05:51:59.102Z,257.45
2022-11-27T05:54:25.520Z,265.20
2022-11-27T05:56:51.970Z,232.48
2022-11-27T05:59:18.532Z,252.40
2022-11-27T06:01:45.069Z,254.10
2022-11-27T06:04:11.550Z,260.77
2022-11-27T06:06:38.502Z,238.93
2022-11-27T06:09:09.334Z,289.85
2022-11-27T06:11:38.949Z,263.95
2022-11-27T06:14:07.544Z,256.08
2022-11-27T06:16:34.141Z,256.13
2022-11-27T06:19:00.683Z,278.08
2022-11-27T06:21:27.095Z,276.77
2022-11-27T06:23:56.243Z,251.65
2022-11-27T06:26:24.301Z,256.75
2022-11-27T06:28:51.039Z,240.93
2022-11-27T06:31:18.934Z,254.30
2022-11-27T06:33:48.900Z,230.00
2022-11-27T06:36:15.675Z,239.63
2022-11-27T06:38:42.113Z,255.25
2022-11-27T06:41:28.173Z,269.05
2022-11-27T06:43:55.315Z,220.85
2022-11-27T06:46:22.574Z,242.27
2022-11-27T06:48:50.187Z,232.52
2022-11-27T06:51:18.130Z,240.82
2022-11-27T06:53:45.028Z,223.40
2022-11-27T06:56:12.549Z,216.27
2022-11-27T06:58:38.981Z,235.57
2022-11-27T07:01:07.023Z,250.70
2022-11-27T07:03:33.705Z,256.60
2022-11-27T07:06:00.863Z,270.45
2022-11-27T07:08:27.645Z,294.02
2022-11-27T07:10:54.200Z,284.85
2022-11-27T07:13:20.663Z,290.40
2022-11-27T07:15:47.176Z,285.13
2022-11-27T07:18:13.672Z,292.38
2022-11-27T07:20:40.102Z,261.30
2022-11-27T07:23:06.507Z,255.80
2022-11-27T07:25:34.218Z,272.58
2022-11-27T07:28:01.843Z,291.95
2022-11-27T07:30:28.351Z,248.23
2022-11-27T07:32:54.875Z,280.05
2022-11-27T07:35:21.318Z,259.35
2022-11-27T07:37:47.785Z,249.57
2022-11-27T07:40:15.042Z,270.20
2022-11-27T07:42:41.725Z,254.43
2022-11-27T07:45:08.624Z,250.75
2022-11-27T07:47:35.055Z,277.90
2022-11-27T07:50:01.645Z,236.77
2022-11-27T07:52:28.214Z,270.48
2022-11-27T07:54:54.688Z,268.08
2022-11-27T07:57:21.145Z,265.80
2022-11-27T07:59:47.925Z,270.65
2022-11-27T08:02:15.682Z,235.07
2022-11-27T08:04:42.469Z,245.90
2022-11-27T08:07:09.189Z,282.05
2022-11-27T08:09:35.748Z,261.30
2022-11-27T08:12:02.165Z,275.80
2022-11-27T08:14:28.633Z,272.33
2022-11-27T08:16:55.224Z,268.60
2022-11-27T08:19:21.979Z,246.70
2022-11-27T08:21:48.441Z,222.60
2022-11-27T08:24:14.872Z,228.23
2022-11-27T08:26:41.420Z,208.15
2022-11-27T08:29:07.854Z,193.13
2022-11-27T08:31:34.580Z,207.80
2022-11-27T08:34:01.045Z,196.82
2022-11-27T08:36:27.952Z,189.50
2022-11-27T08:38:55.359Z,176.20
2022-11-27T08:41:21.813Z,180.88
2022-11-27T08:43:49.083Z,185.82
2022-11-27T08:46:15.615Z,162.18
2022-11-27T08:48:42.178Z,180.68
2022-11-27T13:07:14.798Z,144.65
2022-11-27T13:32:38.404Z,143.73
2022-11-27T13:35:06.703Z,148.38
2022-11-27T13:37:42.037Z,127.88
2022-11-27T13:40:26.747Z,104.68
2022-11-27T13:42:55.645Z,97.38
2022-11-27T13:45:23.850Z,98.43
2022-11-27T13:47:50.888Z,96.60
2022-11-27T13:50:19.178Z,95.25
2022-11-27T13:53:04.307Z,97.28
2022-11-27T13:55:32.348Z,100.00
2022-11-27T13:57:59.815Z,102.65
2022-11-27T14:00:39.804Z,93.13
2022-11-27T14:03:07.051Z,95.53
2022-11-27T14:05:36.196Z,107.78
2022-11-27T14:08:02.870Z,101.88
2022-11-27T14:10:31.211Z,101.63
2022-11-27T14:13:02.703Z,100.93
2022-11-27T14:15:30.633Z,110.30
2022-11-27T14:18:09.546Z,104.28
2022-11-27T14:20:38.046Z,104.55
2022-11-27T14:23:13.082Z,121.00
2022-11-27T14:25:40.660Z,111.32
2022-11-27T14:28:15.395Z,168.32
2022-11-27T14:30:45.401Z,98.55
2022-11-27T14:33:23.099Z,93.38
2022-11-27T14:35:50.885Z,79.63
2022-11-27T14:38:17.444Z,65.70
2022-11-27T14:40:43.924Z,83.15
2022-11-27T14:43:14.198Z,71.03
2022-11-27T14:45:47.548Z,62.42
2022-11-27T14:48:34.268Z,73.28
2022-11-27T14:51:01.205Z,62.47
2022-11-27T14:53:28.290Z,65.22
2022-11-27T14:55:58.135Z,64.47
2022-11-27T14:58:28.775Z,79.82
2022-11-27T15:00:57.209Z,68.65
2022-11-27T15:03:24.671Z,65.82
2022-11-27T15:05:53.385Z,67.20
2022-11-27T15:08:19.900Z,70.82
2022-11-27T15:10:46.444Z,67.13
2022-11-27T15:13:39.774Z,74.35
2022-11-27T15:16:07.866Z,57.45
2022-11-27T15:18:37.226Z,60.55
2022-11-27T15:21:09.333Z,60.40
2022-11-27T15:23:36.426Z,59.17
2022-11-27T15:26:02.810Z,63.28
2022-11-27T15:28:33.049Z,53.55
2022-11-27T15:30:59.609Z,67.32
2022-11-27T15:33:27.720Z,70.95
2022-11-27T15:35:55.306Z,100.93
2022-11-27T15:38:21.954Z,102.30
2022-11-27T15:40:59.170Z,106.70
2022-11-27T15:43:25.657Z,107.35
2022-11-27T15:45:52.961Z,110.53
2022-11-27T15:48:21.142Z,102.85
2022-11-27T15:50:51.619Z,98.90
2022-11-27T15:53:18.513Z,93.07
2022-11-27T15:55:45.724Z,96.43
2022-11-27T15:58:12.125Z,151.88
2022-11-27T16:00:40.611Z,111.25
2022-11-27T16:03:07.179Z,129.77
2022-11-27T16:05:34.348Z,98.28
2022-11-27T16:08:01.713Z,105.53
2022-11-27T16:10:29.435Z,92.55
2022-11-27T16:12:57.631Z,90.10
2022-11-27T16:15:27.623Z,82.72
2022-11-27T16:17:57.959Z,73.32
2022-11-27T16:20:27.510Z,76.15
2022-11-27T16:22:53.910Z,69.97
2022-11-27T16:25:21.505Z,65.22
2022-11-27T16:27:47.907Z,66.65
2022-11-27T16:30:15.075Z,58.75
2022-11-27T16:32:41.518Z,56.78
2022-11-27T16:35:08.839Z,52.95
2022-11-27T16:37:35.336Z,61.83
2022-11-27T16:40:02.605Z,62.53
2022-11-27T16:42:29.060Z,68.05
2022-11-27T16:44:56.224Z,64.80
2022-11-27T16:47:22.663Z,68.97
2022-11-27T16:49:50.188Z,59.90
2022-11-27T16:52:17.148Z,61.90
2022-11-27T16:54:43.707Z,61.47
2022-11-27T16:57:10.274Z,60.78
2022-11-27T16:59:38.364Z,74.80
2022-11-27T17:02:05.239Z,75.00
2022-11-27T17:04:31.985Z,89.53
2022-11-27T17:07:00.170Z,63.88
2022-11-27T17:09:29.418Z,69.00
2022-11-27T17:11:55.833Z,62.83
2022-11-27T17:14:22.256Z,61.17
2022-11-27T17:16:48.944Z,66.35
2022-11-27T17:19:15.717Z,86.75
2022-11-27T17:21:42.131Z,106.57
2022-11-27T17:24:15.028Z,88.40
2022-11-27T17:26:42.545Z,77.72
2022-11-27T17:29:12.807Z,67.28
2022-11-27T17:31:39.916Z,70.00
2022-11-27T17:34:06.944Z,69.20
2022-11-27T17:36:37.066Z,63.65
2022-11-27T17:39:05.374Z,75.57
2022-11-27T17:41:31.866Z,65.60
2022-11-27T17:43:58.391Z,66.78
2022-11-27T17:46:28.710Z,72.50
2022-11-27T17:48:55.643Z,67.38
2022-11-27T17:51:22.083Z,65.07
2022-11-27T17:53:48.583Z,61.75
2022-11-27T17:56:16.344Z,62.72
2022-11-27T17:58:43.159Z,54.53
2022-11-27T18:01:20.019Z,58.30
2022-11-27T18:03:46.778Z,58.53
2022-11-27T18:06:13.646Z,60.63
2022-11-27T18:08:40.154Z,65.82
2022-11-27T18:11:09.234Z,65.95
2022-11-27T18:13:35.980Z,76.93
2022-11-27T18:16:10.367Z,72.28
2022-11-27T18:18:38.790Z,67.85
2022-11-27T18:21:08.433Z,58.35
2022-11-27T18:23:36.154Z,64.00
2022-11-27T18:26:06.334Z,62.50
2022-11-27T18:28:32.862Z,65.25
2022-11-27T18:31:03.751Z,68.82
2022-11-27T18:33:30.185Z,70.55
2022-11-27T18:35:56.678Z,72.40
2022-11-27T18:38:23.105Z,68.18
2022-11-27T18:40:49.593Z,64.68
2022-11-27T18:43:16.353Z,78.63
2022-11-27T18:45:42.812Z,77.03
2022-11-27T18:48:09.269Z,109.18
2022-11-27T18:50:35.998Z,108.90
2022-11-27T18:53:03.146Z,115.03
2022-11-27T18:55:32.543Z,123.25
2022-11-27T18:57:58.965Z,128.15
2022-11-27T19:00:25.373Z,116.93
2022-11-27T19:02:51.859Z,115.20
2022-11-27T19:05:18.343Z,111.80
2022-11-27T19:07:44.889Z,113.68
2022-11-27T19:10:11.544Z,105.03
2022-11-27T19:12:37.965Z,93.40
2022-11-27T19:15:04.890Z,93.85
2022-11-27T19:17:32.616Z,87.63
2022-11-27T19:19:59.107Z,88.90
2022-11-27T19:22:25.577Z,90.55
2022-11-27T19:24:52.026Z,85.90
2022-11-27T19:27:18.593Z,89.10
2022-11-27T19:29:45.134Z,85.25
2022-11-27T19:32:11.682Z,86.85
2022-11-27T19:34:38.207Z,90.97
2022-11-27T19:37:04.698Z,78.00
2022-11-27T19:39:31.185Z,89.70
2022-11-27T19:41:58.138Z,91.20
2022-11-27T19:44:24.620Z,90.90
2022-11-27T19:46:51.126Z,89.60
2022-11-27T19:49:21.502Z,89.07
2022-11-27T19:51:48.338Z,81.55
2022-11-27T19:54:15.697Z,88.82
2022-11-27T19:56:42.880Z,80.70
2022-11-27T19:59:10.059Z,82.53
2022-11-27T20:01:37.832Z,88.90
2022-11-27T20:04:04.741Z,81.25
2022-11-27T20:06:31.393Z,83.07
2022-11-27T20:09:01.553Z,83.85
2022-11-27T20:11:34.259Z,94.63
2022-11-27T20:14:02.192Z,145.05
2022-11-27T20:16:28.725Z,110.47
2022-11-27T20:18:55.407Z,104.55
2022-11-27T20:21:23.586Z,97.43
2022-11-27T20:23:51.170Z,110.45
2022-11-27T20:26:20.936Z,98.00
2022-11-27T20:28:47.434Z,93.72
2022-11-27T20:31:15.135Z,103.97
2022-11-27T20:33:42.758Z,108.57
2022-11-27T20:36:16.479Z,116.88
2022-11-27T20:38:43.124Z,116.50
2022-11-27T20:41:10.503Z,109.70
2022-11-27T20:43:37.353Z,109.70
2022-11-27T20:46:04.193Z,102.18
2022-11-27T20:48:30.852Z,104.50
2022-11-27T20:50:59.666Z,100.25
2022-11-27T20:53:26.154Z,103.95
2022-11-27T20:55:52.610Z,116.00
2022-11-27T20:58:19.115Z,104.57
2022-11-27T21:00:45.728Z,94.13
2022-11-27T21:03:12.334Z,92.32
2022-11-27T21:05:39.081Z,105.88
2022-11-27T21:08:05.566Z,98.80
2022-11-27T21:10:32.028Z,93.45
2022-11-27T21:12:58.491Z,90.20
2022-11-27T21:15:24.981Z,88.32
2022-11-27T21:17:51.448Z,97.80
2022-11-27T21:20:18.633Z,104.35
2022-11-27T21:22:45.118Z,103.43
2022-11-27T21:25:11.726Z,91.38
2022-11-27T21:27:38.226Z,92.72
2022-11-27T21:30:05.536Z,91.85
2022-11-27T21:32:31.991Z,99.38
2022-11-27T21:34:58.378Z,98.35
2022-11-27T21:37:24.954Z,102.18
2022-11-27T21:39:51.906Z,95.35
2022-11-27T21:42:18.359Z,108.53
2022-11-27T21:44:44.894Z,80.53
2022-11-27T21:47:12.194Z,95.38
2022-11-27T21:49:39.684Z,87.75
2022-11-27T21:52:06.717Z,86.78
2022-11-27T21:54:33.668Z,80.32
2022-11-27T21:57:00.126Z,86.95
2022-11-27T21:59:26.550Z,93.72
2022-11-27T22:01:53.174Z,99.95
2022-11-27T22:04:19.866Z,104.55
2022-11-27T22:06:46.374Z,96.60
2022-11-27T22:09:15.725Z,103.30
2022-11-27T22:11:42.770Z,91.72
2022-11-27T22:14:09.213Z,109.13
2022-11-27T22:16:44.393Z,98.40
2022-11-27T22:19:11.336Z,103.18
2022-11-27T22:21:37.821Z,79.68
2022-11-27T22:24:04.436Z,91.47
2022-11-27T22:26:31.176Z,95.32
2022-11-27T22:28:58.613Z,91.85
2022-11-27T22:31:26.922Z,77.85
2022-11-27T22:33:53.531Z,85.90
2022-11-27T22:36:21.464Z,82.18
2022-11-27T22:38:48.861Z,83.07
2022-11-27T22:41:15.825Z,77.60
2022-11-27T22:43:42.404Z,82.50
2022-11-27T22:46:10.785Z,93.68
2022-11-27T22:48:37.217Z,87.93
2022-11-27T22:51:03.758Z,87.72
2022-11-27T22:53:30.253Z,83.43
2022-11-27T22:55:56.783Z,78.45
2022-11-27T22:58:23.306Z,88.63
2022-11-27T23:00:56.174Z,91.35
2022-11-27T23:03:23.107Z,97.20
2022-11-27T23:05:49.813Z,93.05
2022-11-27T23:08:16.317Z,88.53
2022-11-27T23:10:49.926Z,82.30
2022-11-27T23:13:16.994Z,92.47
2022-11-27T23:15:44.110Z,107.75
2022-11-27T23:18:13.597Z,88.30
2022-11-27T23:20:41.584Z,85.53
2022-11-27T23:23:08.045Z,96.53
2022-11-27T23:25:34.763Z,83.55
2022-11-27T23:28:01.174Z,89.45
2022-11-27T23:30:27.674Z,90.35
2022-11-27T23:32:54.156Z,90.13
2022-11-27T23:35:20.560Z,89.97
2022-11-27T23:37:47.030Z,87.78
2022-11-27T23:40:13.775Z,94.18
2022-11-27T23:42:40.196Z,92.65
2022-11-27T23:45:06.907Z,93.50
2022-11-27T23:47:33.490Z,96.78
2022-11-27T23:50:01.472Z,90.63
2022-11-27T23:52:29.476Z,87.75
2022-11-27T23:54:55.950Z,94.88
2022-11-27T23:57:23.582Z,89.53
2022-11-27T23:59:51.093Z,95.15
